Time;durP1;ratioP1;P1;durP2;ratioP2;P2;SDS_P1;SDS_P2;PMS_P1;PMS_P2;Temp;Humidity;BMP_temperature;BMP_pressure;BME280_temperature;BME280_humidity;BME280_pressure;Samples;Min_cycle;Max_cycle;Signal;HPM_P1;HPM_P2
2023/12/22 00:01:02;;;;;;;0.80;0.80;;;;;;;4.15;97.77;97947.34;5071484;28;20204;-67
2023/12/22 00:03:28;;;;;;;1.33;1.33;;;;;;;4.16;97.68;97932.97;5073524;28;20694;-67
2023/12/22 00:05:55;;;;;;;0.60;0.60;;;;;;;4.16;98.27;97928.72;5071255;28;20368;-67
2023/12/22 00:08:23;;;;;;;0.63;0.63;;;;;;;4.19;97.80;97913.41;5071319;28;20565;-67
2023/12/22 00:10:50;;;;;;;0.90;0.90;;;;;;;4.15;97.56;97924.50;5071169;28;20261;-66
2023/12/22 00:13:17;;;;;;;0.77;0.77;;;;;;;4.00;98.08;97912.28;5073557;28;20691;-66
2023/12/22 00:15:44;;;;;;;0.60;0.60;;;;;;;4.04;98.21;97918.09;5070999;28;20203;-66
2023/12/22 00:18:11;;;;;;;0.60;0.60;;;;;;;3.96;98.77;97920.81;5070845;28;20582;-67
2023/12/22 00:20:38;;;;;;;1.13;1.13;;;;;;;3.88;99.23;97922.72;5070028;28;20627;-66
2023/12/22 00:23:04;;;;;;;0.90;0.90;;;;;;;3.84;99.77;97910.19;5071421;28;20215;-67
2023/12/22 00:25:33;;;;;;;0.60;0.60;;;;;;;3.89;99.78;97915.97;5071457;28;20199;-67
2023/12/22 00:28:00;;;;;;;0.70;0.70;;;;;;;3.84;100.00;97916.09;5070716;28;20206;-67
2023/12/22 00:30:27;;;;;;;0.60;0.60;;;;;;;3.70;100.00;97913.09;5071783;28;20250;-67
2023/12/22 00:32:54;;;;;;;0.70;0.70;;;;;;;3.63;100.00;97897.22;5069618;28;20205;-67
2023/12/22 00:35:21;;;;;;;0.70;0.70;;;;;;;3.53;100.00;97900.03;5071359;28;20196;-67
2023/12/22 00:37:48;;;;;;;0.70;0.70;;;;;;;3.57;100.00;97907.53;5070491;28;20665;-67
2023/12/22 00:40:15;;;;;;;0.83;0.83;;;;;;;3.59;100.00;97900.69;5070567;28;20195;-66
2023/12/22 00:42:43;;;;;;;1.07;1.07;;;;;;;3.56;100.00;97899.94;5070969;28;20265;-67
2023/12/22 00:45:10;;;;;;;1.10;1.10;;;;;;;3.43;100.00;97891.00;5070401;28;20196;-66
2023/12/22 00:47:37;;;;;;;0.80;0.80;;;;;;;3.48;100.00;97891.72;5070816;28;20680;-66
2023/12/22 00:50:05;;;;;;;0.70;0.70;;;;;;;3.43;100.00;97878.34;5070303;28;20204;-67
2023/12/22 00:52:32;;;;;;;1.00;1.00;;;;;;;3.36;100.00;97887.78;5072451;28;20228;-67
2023/12/22 00:54:59;;;;;;;0.80;0.80;;;;;;;3.33;100.00;97897.19;5070415;28;20196;-66
2023/12/22 00:57:26;;;;;;;0.90;0.90;;;;;;;3.40;100.00;97886.00;5070426;28;20199;-67
2023/12/22 00:59:54;;;;;;;0.63;0.63;;;;;;;3.33;100.00;97892.94;5070457;28;20229;-67
2023/12/22 01:02:21;;;;;;;0.87;0.87;;;;;;;3.31;100.00;97889.63;5071347;28;20242;-67
2023/12/22 01:04:48;;;;;;;1.30;1.30;;;;;;;3.35;100.00;97885.31;5070726;28;20301;-66
2023/12/22 01:07:15;;;;;;;1.90;0.90;;;;;;;3.39;100.00;97892.81;5070066;28;20253;-67
2023/12/22 01:09:43;;;;;;;7.97;1.07;;;;;;;3.41;100.00;97893.59;5053662;28;20207;-66
2023/12/22 01:12:10;;;;;;;0.90;0.90;;;;;;;3.41;100.00;97895.28;5071222;28;20211;-66
2023/12/22 01:14:38;;;;;;;0.60;0.60;;;;;;;3.45;100.00;97892.66;5071070;28;20269;-67
2023/12/22 01:17:07;;;;;;;0.70;0.70;;;;;;;3.45;100.00;97891.81;5072708;28;20203;-66
2023/12/22 01:19:34;;;;;;;0.70;0.70;;;;;;;3.42;100.00;97882.59;5074089;28;20757;-66
2023/12/22 01:22:03;;;;;;;0.70;0.70;;;;;;;3.40;100.00;97879.25;5070312;28;20196;-67
2023/12/22 01:24:30;;;;;;;0.53;0.53;;;;;;;3.41;100.00;97885.16;5070067;28;20608;-67
2023/12/22 01:26:56;;;;;;;1.33;1.33;;;;;;;3.41;100.00;97880.09;5070129;28;20199;-67
2023/12/22 01:29:23;;;;;;;0.83;0.83;;;;;;;3.44;100.00;97874.94;5071174;28;20268;-66
2023/12/22 01:31:50;;;;;;;0.80;0.80;;;;;;;3.46;100.00;97866.44;5073959;28;20200;-67
2023/12/22 01:34:18;;;;;;;1.07;1.07;;;;;;;3.44;100.00;97865.66;5069619;28;20192;-66
2023/12/22 01:36:44;;;;;;;0.93;0.93;;;;;;;3.45;100.00;97861.41;5070068;28;20208;-67
2023/12/22 01:39:11;;;;;;;0.90;0.90;;;;;;;3.47;100.00;97864.72;5069663;28;20230;-66
2023/12/22 01:41:38;;;;;;;2.73;1.13;;;;;;;3.45;100.00;97846.22;5071548;28;20258;-67
2023/12/22 01:44:05;;;;;;;1.10;1.10;;;;;;;3.48;100.00;97854.56;5071333;28;20208;-66
2023/12/22 01:46:33;;;;;;;0.63;0.63;;;;;;;3.46;100.00;97837.72;5070087;28;20245;-66
2023/12/22 01:49:01;;;;;;;1.07;1.07;;;;;;;3.48;100.00;97838.53;5069949;28;20574;-66
2023/12/22 01:51:29;;;;;;;0.97;0.97;;;;;;;3.45;100.00;97847.06;5072884;28;20258;-66
2023/12/22 01:53:56;;;;;;;1.80;1.20;;;;;;;3.45;100.00;97841.16;5071980;28;20200;-66
2023/12/22 01:56:23;;;;;;;0.67;0.67;;;;;;;3.42;100.00;97831.09;5073938;28;20208;-66
2023/12/22 01:58:53;;;;;;;0.50;0.50;;;;;;;3.39;100.00;97836.25;5073834;28;20250;-66
2023/12/22 02:01:21;;;;;;;1.43;1.43;;;;;;;3.34;100.00;97828.78;5075189;28;20253;-66
2023/12/22 02:03:52;;;;;;;0.90;0.90;;;;;;;3.27;100.00;97819.66;5073450;28;20212;-66
2023/12/22 02:06:19;;;;;;;0.90;0.90;;;;;;;3.30;100.00;97836.47;5072867;28;20245;-66
2023/12/22 02:08:48;;;;;;;0.90;0.90;;;;;;;3.33;100.00;97838.97;5073451;28;20253;-66
2023/12/22 02:11:15;;;;;;;0.80;0.80;;;;;;;3.29;100.00;97830.59;5073355;28;20747;-66
2023/12/22 02:13:42;;;;;;;0.70;0.70;;;;;;;3.32;100.00;97829.69;5073901;28;20196;-66
2023/12/22 02:16:17;;;;;;;1.07;1.07;;;;;;;3.26;100.00;97810.44;5073215;28;20237;-66
2023/12/22 02:18:47;;;;;;;0.80;0.80;;;;;;;3.26;100.00;97809.59;5075479;28;20289;-66
2023/12/22 02:21:14;;;;;;;1.43;1.33;;;;;;;3.28;100.00;97812.91;5072305;28;20262;-66
2023/12/22 02:23:42;;;;;;;1.67;1.67;;;;;;;3.29;100.00;97799.38;5073077;28;20277;-67
2023/12/22 02:26:18;;;;;;;0.60;0.60;;;;;;;3.33;100.00;97785.78;5073252;28;20204;-67
2023/12/22 02:28:47;;;;;;;1.50;1.40;;;;;;;3.35;100.00;97789.09;5076008;28;20210;-66
2023/12/22 02:31:18;;;;;;;1.50;1.27;;;;;;;3.25;100.00;97768.25;5074075;28;20200;-66
2023/12/22 02:33:47;;;;;;;0.60;0.60;;;;;;;3.23;100.00;97756.50;5071393;28;20255;-67
2023/12/22 02:36:17;;;;;;;1.47;1.47;;;;;;;3.42;100.00;97780.44;5072551;28;20249;-67
2023/12/22 02:38:47;;;;;;;1.30;1.30;;;;;;;3.41;100.00;97793.97;5077229;28;20248;-66
2023/12/22 02:41:14;;;;;;;0.70;0.70;;;;;;;3.25;100.00;97759.81;5073750;28;20630;-67
2023/12/22 02:43:41;;;;;;;0.70;0.70;;;;;;;3.39;100.00;97785.59;5072444;28;20212;-66
2023/12/22 02:46:14;;;;;;;1.37;1.37;;;;;;;3.30;100.00;97785.81;5072710;28;20195;-66
2023/12/22 02:48:41;;;;;;;1.87;1.77;;;;;;;3.39;100.00;97793.19;5072865;28;20220;-66
2023/12/22 02:51:08;;;;;;;2.30;2.20;;;;;;;3.26;100.00;97784.28;5073570;28;20655;-66
2023/12/22 02:53:34;;;;;;;1.53;1.53;;;;;;;3.27;100.00;97784.22;5072820;28;20196;-67
2023/12/22 02:56:03;;;;;;;1.17;1.17;;;;;;;3.15;100.00;97790.44;5072638;28;20261;-67
2023/12/22 02:58:29;;;;;;;1.30;1.30;;;;;;;3.15;100.00;97790.44;5073221;28;20195;-66
2023/12/22 03:00:56;;;;;;;2.03;0.93;;;;;;;3.16;100.00;97799.72;5072805;28;20274;-66
2023/12/22 03:03:23;;;;;;;0.60;0.60;;;;;;;3.18;100.00;97797.97;5075310;28;20714;-66
2023/12/22 03:05:49;;;;;;;1.00;1.00;;;;;;;3.06;100.00;97785.63;5071785;28;20200;-66
2023/12/22 03:08:16;;;;;;;0.70;0.70;;;;;;;3.10;100.00;97788.91;5072301;28;20265;-66
2023/12/22 03:10:43;;;;;;;0.60;0.60;;;;;;;3.06;100.00;97772.97;5073117;28;20196;-66
2023/12/22 03:13:11;;;;;;;0.67;0.67;;;;;;;3.18;100.00;97772.66;5072942;28;20242;-66
2023/12/22 03:15:38;;;;;;;0.73;0.73;;;;;;;3.23;100.00;97774.22;5054515;28;20680;-66
2023/12/22 03:18:06;;;;;;;1.30;1.30;;;;;;;3.26;100.00;97771.63;5072203;28;20920;-67
2023/12/22 03:20:33;;;;;;;1.33;1.33;;;;;;;3.28;100.00;97777.47;5072473;28;20208;-67
2023/12/22 03:23:00;;;;;;;0.90;0.90;;;;;;;3.28;100.00;97774.91;5072489;28;20231;-67
2023/12/22 03:25:27;;;;;;;0.90;0.87;;;;;;;3.28;100.00;97783.34;5072150;28;20203;-66
2023/12/22 03:27:53;;;;;;;1.33;1.33;;;;;;;3.28;100.00;97772.38;5071915;28;20737;-66
2023/12/22 03:30:21;;;;;;;0.70;0.70;;;;;;;3.30;100.00;97781.59;5071938;28;20196;-66
2023/12/22 03:32:49;;;;;;;0.90;0.90;;;;;;;3.31;100.00;97785.81;5071884;28;20200;-66
2023/12/22 03:35:16;;;;;;;2.20;1.77;;;;;;;3.31;100.00;97783.28;5073709;28;20208;-67
2023/12/22 03:37:43;;;;;;;1.43;1.43;;;;;;;3.21;100.00;97761.59;5073462;28;20614;-67
2023/12/22 03:40:10;;;;;;;1.03;1.03;;;;;;;3.22;100.00;97778.47;5071387;28;20289;-66
2023/12/22 03:42:37;;;;;;;0.90;0.90;;;;;;;3.24;100.00;97780.94;5071639;28;20254;-66
2023/12/22 03:45:05;;;;;;;1.27;1.27;;;;;;;3.03;100.00;97770.53;5071695;28;20640;-67
2023/12/22 03:47:34;;;;;;;0.90;0.90;;;;;;;3.16;100.00;97804.78;5054258;28;20234;-66
2023/12/22 03:50:01;;;;;;;1.27;1.27;;;;;;;3.10;100.00;97776.25;5071768;28;20733;-66
2023/12/22 03:52:28;;;;;;;0.70;0.70;;;;;;;3.11;100.00;97783.81;5070157;28;20704;-66
2023/12/22 03:54:55;;;;;;;1.03;1.03;;;;;;;3.06;100.00;97777.22;5071413;28;20204;-66
2023/12/22 03:57:21;;;;;;;1.43;1.43;;;;;;;2.97;100.00;97752.94;5071200;28;20261;-67
2023/12/22 03:59:49;;;;;;;0.90;0.90;;;;;;;3.03;100.00;97742.69;5073345;28;20751;-66
2023/12/22 04:02:16;;;;;;;0.83;0.83;;;;;;;3.03;100.00;97752.81;5073943;28;20200;-66
2023/12/22 04:04:45;;;;;;;0.60;0.60;;;;;;;3.05;100.00;97735.88;5071316;28;20247;-66
2023/12/22 04:07:12;;;;;;;1.70;1.70;;;;;;;3.06;100.00;97741.78;5071128;28;20204;-66
2023/12/22 04:09:39;;;;;;;0.93;0.93;;;;;;;3.00;100.00;97732.66;5069162;28;20203;-66
2023/12/22 04:12:10;;;;;;;0.60;0.60;;;;;;;3.02;100.00;97730.91;5071702;28;20199;-66
2023/12/22 04:14:37;;;;;;;0.60;0.60;;;;;;;3.03;100.00;97731.72;5070211;28;20220;-67
2023/12/22 04:17:04;;;;;;;0.90;0.90;;;;;;;3.00;100.00;97737.72;5070708;28;20261;-66
2023/12/22 04:19:31;;;;;;;1.27;1.27;;;;;;;3.03;100.00;97734.25;5053654;28;20196;-66
2023/12/22 04:22:00;;;;;;;1.43;1.43;;;;;;;3.03;100.00;97732.56;5071850;28;20200;-66
2023/12/22 04:24:28;;;;;;;0.97;0.97;;;;;;;2.93;100.00;97715.13;5071002;28;20224;-66
2023/12/22 04:26:55;;;;;;;1.37;1.37;;;;;;;3.09;100.00;97742.53;5068821;28;20275;-66
2023/12/22 04:29:22;;;;;;;1.10;1.10;;;;;;;3.09;100.00;97747.59;5073082;28;20273;-66
2023/12/22 04:31:50;;;;;;;1.20;1.20;;;;;;;2.97;100.00;97747.09;5071323;28;20192;-67
2023/12/22 04:34:18;;;;;;;4.23;1.63;;;;;;;3.01;100.00;97739.34;5078003;28;20192;-67
2023/12/22 04:36:44;;;;;;;1.67;1.37;;;;;;;2.97;100.00;97721.78;5077596;28;20202;-66
2023/12/22 04:39:13;;;;;;;1.17;1.17;;;;;;;3.03;100.00;97727.50;5070598;28;20204;-66
2023/12/22 04:41:42;;;;;;;4.83;0.93;;;;;;;3.10;100.00;97744.16;5073871;28;20753;-66
2023/12/22 04:44:09;;;;;;;0.80;0.80;;;;;;;3.02;100.00;97725.00;5073022;28;20655;-66
2023/12/22 04:46:37;;;;;;;0.80;0.80;;;;;;;3.09;100.00;97742.53;5070673;28;20204;-66
2023/12/22 04:49:04;;;;;;;0.80;0.80;;;;;;;3.03;100.00;97734.25;5070342;28;20257;-66
2023/12/22 04:51:31;;;;;;;1.17;1.17;;;;;;;3.01;100.00;97724.16;5071650;28;20285;-66
2023/12/22 04:54:00;;;;;;;1.10;1.10;;;;;;;3.11;100.00;97730.63;5051776;28;20206;-66
2023/12/22 04:56:29;;;;;;;1.17;1.17;;;;;;;3.09;100.00;97732.41;5076167;28;20204;-67
2023/12/22 04:58:56;;;;;;;0.53;0.53;;;;;;;2.96;100.00;97726.00;5069777;28;20208;-66
2023/12/22 05:01:23;;;;;;;0.90;0.90;;;;;;;2.82;100.00;97739.88;5070065;28;20249;-66
2023/12/22 05:03:50;;;;;;;1.63;1.63;;;;;;;2.85;100.00;97737.25;5070136;28;20212;-67
2023/12/22 05:06:18;;;;;;;0.80;0.80;;;;;;;2.92;100.00;97724.41;5073572;28;20214;-66
2023/12/22 05:08:45;;;;;;;1.30;1.30;;;;;;;2.96;100.00;97720.09;5071578;28;20645;-66
2023/12/22 05:11:12;;;;;;;1.27;1.07;;;;;;;2.94;100.00;97717.59;5072676;28;20215;-66
2023/12/22 05:13:42;;;;;;;0.73;0.73;;;;;;;2.94;100.00;97712.53;5070389;28;20196;-66
2023/12/22 05:16:10;;;;;;;1.63;1.57;;;;;;;2.90;100.00;97710.16;5070030;28;20261;-66
2023/12/22 05:18:40;;;;;;;0.70;0.70;;;;;;;2.90;100.00;97713.50;5073927;28;20204;-66
2023/12/22 05:21:07;;;;;;;1.27;1.20;;;;;;;2.79;100.00;97715.47;5052011;28;20227;-66
2023/12/22 05:23:36;;;;;;;0.67;0.67;;;;;;;2.68;100.00;97693.88;5067392;28;20208;-66
2023/12/22 05:26:04;;;;;;;0.80;0.80;;;;;;;2.75;100.00;97698.72;5071604;28;20623;-67
2023/12/22 05:28:31;;;;;;;0.93;0.93;;;;;;;2.75;100.00;97708.84;5052366;28;20201;-67
2023/12/22 05:31:00;;;;;;;0.80;0.80;;;;;;;2.77;100.00;97717.25;5075439;28;20253;-66
2023/12/22 05:33:27;;;;;;;2.00;0.80;;;;;;;2.81;100.00;97706.13;5073886;28;20237;-66
2023/12/22 05:35:56;;;;;;;1.00;1.00;;;;;;;2.88;100.00;97701.75;5074255;28;20204;-66
2023/12/22 05:38:23;;;;;;;1.37;1.37;;;;;;;2.94;100.00;97702.41;5074178;28;20199;-66
2023/12/22 05:40:51;;;;;;;1.07;1.07;;;;;;;2.88;100.00;97712.69;5075523;28;20207;-66
2023/12/22 05:43:21;;;;;;;4.73;1.10;;;;;;;2.93;100.00;97700.78;5073490;28;20200;-66
2023/12/22 05:45:49;;;;;;;1.23;1.23;;;;;;;2.96;100.00;97710.81;5073824;28;20231;-66
2023/12/22 05:48:21;;;;;;;1.00;1.00;;;;;;;3.05;100.00;97710.56;5073293;28;20203;-66
2023/12/22 05:50:49;;;;;;;1.10;1.10;;;;;;;3.10;100.00;97708.72;5055465;28;20642;-67
2023/12/22 05:53:16;;;;;;;1.90;1.67;;;;;;;3.14;100.00;97715.38;5074226;28;20204;-66
2023/12/22 05:55:43;;;;;;;1.07;1.07;;;;;;;3.20;100.00;97718.63;5073741;28;20196;-66
2023/12/22 05:58:10;;;;;;;0.57;0.57;;;;;;;3.23;100.00;97728.66;5073465;28;20200;-66
2023/12/22 06:00:37;;;;;;;0.77;0.77;;;;;;;3.23;100.00;97718.53;5073771;28;20721;-66
2023/12/22 06:03:05;;;;;;;1.23;1.23;;;;;;;3.26;100.00;97719.28;5074240;28;20625;-66
2023/12/22 06:05:33;;;;;;;0.97;0.97;;;;;;;3.31;100.00;97724.19;5073671;28;20227;-66
2023/12/22 06:08:01;;;;;;;1.30;1.17;;;;;;;3.28;100.00;97729.34;5070535;28;20638;-67
2023/12/22 06:10:28;;;;;;;1.77;1.77;;;;;;;3.28;100.00;97716.69;5075518;28;20710;-67
2023/12/22 06:12:57;;;;;;;1.37;1.37;;;;;;;3.33;100.00;97722.47;5074892;28;20204;-67
2023/12/22 06:15:26;;;;;;;1.27;1.27;;;;;;;3.37;100.00;97724.84;5072485;28;20227;-67
2023/12/22 06:17:54;;;;;;;1.83;1.83;;;;;;;3.40;100.00;97716.34;5074276;28;20737;-67
2023/12/22 06:20:21;;;;;;;1.10;1.10;;;;;;;3.49;100.00;97736.34;5070288;28;20204;-68
2023/12/22 06:22:49;;;;;;;1.90;1.90;;;;;;;3.61;100.00;97730.94;5073521;28;20195;-67
2023/12/22 06:25:18;;;;;;;2.70;2.70;;;;;;;3.66;100.00;97729.09;5054835;28;20219;-66
2023/12/22 06:27:48;;;;;;;2.43;2.20;;;;;;;3.68;100.00;97729.88;5072090;28;20614;-66
2023/12/22 06:30:19;;;;;;;2.40;2.40;;;;;;;3.69;100.00;97739.13;5072641;28;20204;-66
2023/12/22 06:32:46;;;;;;;1.73;1.73;;;;;;;3.71;100.00;97727.25;5072609;28;20317;-66
2023/12/22 06:35:13;;;;;;;1.20;1.20;;;;;;;3.60;100.00;97731.78;5072405;28;20265;-66
2023/12/22 06:37:40;;;;;;;2.00;2.00;;;;;;;3.57;100.00;97749.63;5074578;28;20633;-66
2023/12/22 06:40:09;;;;;;;1.50;1.50;;;;;;;3.66;100.00;97744.28;5074626;28;20245;-66
2023/12/22 06:42:36;;;;;;;0.77;0.77;;;;;;;3.66;100.00;97724.00;5071026;28;20625;-66
2023/12/22 06:45:06;;;;;;;0.60;0.60;;;;;;;3.67;100.00;97720.63;5066107;28;20249;-65
2023/12/22 06:47:34;;;;;;;0.60;0.60;;;;;;;3.65;100.00;97732.50;5068127;28;20204;-66
2023/12/22 06:50:01;;;;;;;1.07;1.07;;;;;;;3.64;100.00;97716.47;5067672;28;20200;-66
2023/12/22 06:52:28;;;;;;;0.90;0.90;;;;;;;3.70;100.00;97725.59;5069721;28;20228;-65
2023/12/22 06:54:55;;;;;;;0.80;0.80;;;;;;;3.76;100.00;97720.34;5069900;28;20604;-65
2023/12/22 06:57:23;;;;;;;0.70;0.70;;;;;;;3.77;100.00;97723.72;5052670;28;20203;-65
2023/12/22 06:59:52;;;;;;;0.70;0.70;;;;;;;3.80;100.00;97734.59;5064336;28;20269;-66
2023/12/22 07:02:21;;;;;;;0.80;0.80;;;;;;;3.82;100.00;97725.22;5052806;28;20254;-66
2023/12/22 07:05:07;;;;;;;0.87;0.87;;;;;;;3.79;100.00;97724.47;5065870;28;20273;-65
2023/12/22 07:07:34;;;;;;;0.70;0.70;;;;;;;3.77;100.00;97727.06;5067992;28;20211;-65
2023/12/22 07:10:01;;;;;;;0.90;0.90;;;;;;;3.82;100.00;97739.59;5068953;28;20204;-66
2023/12/22 07:12:30;;;;;;;1.30;1.30;;;;;;;3.77;100.00;97742.28;5071066;28;20204;-65
2023/12/22 07:14:57;;;;;;;0.87;0.87;;;;;;;3.79;100.00;97750.66;5070399;28;20206;-65
2023/12/22 07:17:25;;;;;;;1.73;1.73;;;;;;;3.82;100.00;97745.50;5070238;28;20200;-66
2023/12/22 07:19:52;;;;;;;2.13;2.03;;;;;;;3.83;100.00;97741.25;5071239;28;20289;-66
2023/12/22 07:22:21;;;;;;;1.30;1.30;;;;;;;3.82;100.00;97737.88;5069138;28;20709;-65
2023/12/22 07:24:49;;;;;;;10.47;2.10;;;;;;;3.74;100.00;97711.97;5069368;28;20652;-67
2023/12/22 07:27:16;;;;;;;2.03;2.03;;;;;;;3.83;100.00;97736.19;5070798;28;20207;-64
2023/12/22 07:29:44;;;;;;;1.30;1.30;;;;;;;3.81;100.00;97727.81;5069643;28;20215;-65
2023/12/22 07:32:12;;;;;;;0.80;0.80;;;;;;;3.78;100.00;97728.72;5068874;28;20206;-66
2023/12/22 07:34:39;;;;;;;2.03;2.03;;;;;;;3.79;100.00;97721.94;5070784;28;20228;-65
2023/12/22 07:37:05;;;;;;;1.13;1.13;;;;;;;3.78;100.00;97718.56;5072318;28;20204;-66
2023/12/22 07:39:32;;;;;;;1.00;1.00;;;;;;;3.69;100.00;97713.78;5070080;28;20250;-65
2023/12/22 07:41:59;;;;;;;0.70;0.70;;;;;;;3.55;100.00;97720.97;5071343;28;20196;-65
2023/12/22 07:44:25;;;;;;;0.80;0.80;;;;;;;3.57;100.00;97719.22;5069442;28;20215;-66
2023/12/22 07:47:00;;;;;;;1.60;1.60;;;;;;;3.51;100.00;97682.25;5071171;28;20235;-66
2023/12/22 07:49:26;;;;;;;0.90;0.90;;;;;;;3.62;100.00;97697.94;5069426;28;20276;-65
2023/12/22 07:51:54;;;;;;;1.37;1.37;;;;;;;3.59;100.00;97687.06;5068966;28;20323;-64
2023/12/22 07:54:21;;;;;;;1.13;1.13;;;;;;;3.64;100.00;97700.44;5051900;28;20692;-64
2023/12/22 07:56:49;;;;;;;1.00;1.00;;;;;;;3.63;100.00;97698.78;5069223;28;20266;-65
2023/12/22 07:59:15;;;;;;;0.83;0.83;;;;;;;3.68;100.00;97696.94;5068676;28;20237;-64
2023/12/22 08:01:43;;;;;;;0.70;0.70;;;;;;;3.71;100.00;97699.38;5070747;28;20277;-64
2023/12/22 08:04:11;;;;;;;0.90;0.90;;;;;;;3.63;100.00;97688.63;5067136;28;20200;-63
2023/12/22 08:06:38;;;;;;;0.77;0.77;;;;;;;3.75;100.00;97698.41;5069860;28;20196;-64
2023/12/22 08:09:07;;;;;;;0.70;0.70;;;;;;;3.81;100.00;97703.31;5067488;28;20642;-64
2023/12/22 08:11:34;;;;;;;1.43;1.43;;;;;;;3.86;100.00;97701.44;5068340;28;20209;-64
2023/12/22 08:14:00;;;;;;;0.60;0.60;;;;;;;3.93;100.00;97700.38;5068322;28;20218;-64
2023/12/22 08:16:27;;;;;;;0.73;0.73;;;;;;;3.97;100.00;97693.53;5071142;28;20276;-64
2023/12/22 08:18:54;;;;;;;0.70;0.70;;;;;;;4.03;100.00;97699.22;5069531;28;20200;-65
2023/12/22 08:21:23;;;;;;;0.90;0.90;;;;;;;4.07;100.00;97700.78;5050610;28;20200;-64
2023/12/22 08:23:49;;;;;;;1.07;1.07;;;;;;;4.18;100.00;97708.88;5067984;28;20199;-64
2023/12/22 08:26:17;;;;;;;0.83;0.83;;;;;;;4.11;100.00;97689.66;5068489;28;20246;-64
2023/12/22 08:28:44;;;;;;;0.67;0.67;;;;;;;4.27;100.00;97717.06;5073590;28;20204;-64
2023/12/22 08:31:12;;;;;;;2.20;2.20;;;;;;;4.39;100.00;97716.69;5068389;28;20234;-65
2023/12/22 08:33:40;;;;;;;0.53;0.53;;;;;;;4.39;100.00;97716.69;5065941;28;20206;-65
2023/12/22 08:36:07;;;;;;;0.77;0.77;;;;;;;4.46;100.00;97721.50;5067545;28;20257;-65
2023/12/22 08:38:40;;;;;;;0.80;0.80;;;;;;;4.50;100.00;97709.53;5066265;28;20273;-64
2023/12/22 08:41:10;;;;;;;0.80;0.80;;;;;;;4.50;100.00;97705.31;5068828;28;20653;-64
2023/12/22 08:43:38;;;;;;;0.77;0.77;;;;;;;4.53;100.00;97694.22;5068347;28;20207;-65
2023/12/22 08:46:05;;;;;;;0.63;0.63;;;;;;;4.51;100.00;97695.97;5071207;28;20311;-65
2023/12/22 08:48:32;;;;;;;0.53;0.53;;;;;;;4.65;100.00;97709.06;5068954;28;20283;-65
2023/12/22 08:50:58;;;;;;;0.93;0.93;;;;;;;4.64;100.00;97697.22;5067878;28;21090;-65
2023/12/22 08:53:25;;;;;;;0.60;0.60;;;;;;;4.64;100.00;97705.69;5066783;28;20219;-65
2023/12/22 08:55:53;;;;;;;1.23;1.23;;;;;;;4.66;100.00;97701.38;5068740;28;20208;-65
2023/12/22 08:58:20;;;;;;;0.93;0.93;;;;;;;4.72;100.00;97700.31;5071852;28;20255;-65
2023/12/22 09:00:47;;;;;;;0.90;0.90;;;;;;;4.71;100.00;97708.84;5068687;28;20737;-65
2023/12/22 09:03:14;;;;;;;1.53;1.53;;;;;;;4.72;100.00;97716.38;5067396;28;20200;-65
2023/12/22 09:05:40;;;;;;;2.37;0.90;;;;;;;4.78;100.00;97705.22;5068490;28;20276;-65
2023/12/22 09:08:07;;;;;;;1.53;1.53;;;;;;;4.79;100.00;97701.78;5052669;28;20203;-65
2023/12/22 09:10:35;;;;;;;1.33;1.33;;;;;;;4.90;100.00;97703.97;5065590;28;20206;-66
2023/12/22 09:13:03;;;;;;;4.00;1.90;;;;;;;4.92;100.00;97708.09;5069542;28;20208;-65
2023/12/22 09:15:30;;;;;;;3.60;1.43;;;;;;;4.96;100.00;97713.91;5050629;28;20552;-65
2023/12/22 09:17:57;;;;;;;1.20;1.20;;;;;;;4.97;100.00;97701.16;5052142;28;20219;-66
2023/12/22 09:20:24;;;;;;;0.90;0.90;;;;;;;5.09;100.00;97710.88;5070150;28;20680;-65
2023/12/22 09:22:51;;;;;;;1.53;1.53;;;;;;;5.13;100.00;97716.69;5052820;28;20204;-65
2023/12/22 09:25:19;;;;;;;0.60;0.60;;;;;;;5.19;100.00;97719.00;5068939;28;20216;-65
2023/12/22 09:27:48;;;;;;;0.67;0.67;;;;;;;5.22;100.00;97711.28;5065742;28;20205;-65
2023/12/22 09:30:17;;;;;;;0.90;0.90;;;;;;;5.29;100.00;97708.47;5066225;28;20261;-65
2023/12/22 09:32:43;;;;;;;1.73;1.73;;;;;;;5.34;100.00;97710.84;5070308;28;20196;-65
2023/12/22 09:35:10;;;;;;;0.93;0.93;;;;;;;5.41;100.00;97697.03;5070412;28;20196;-65
2023/12/22 09:37:37;;;;;;;1.40;1.30;;;;;;;5.48;100.00;97697.63;5068455;28;20626;-65
2023/12/22 09:40:04;;;;;;;1.47;1.47;;;;;;;5.57;100.00;97687.13;5070469;28;20199;-65
2023/12/22 09:42:30;;;;;;;1.00;1.00;;;;;;;5.63;100.00;97697.03;5066719;28;20205;-65
2023/12/22 09:45:03;;;;;;;0.77;0.73;;;;;;;5.70;100.00;97693.41;5069847;28;21749;-65
2023/12/22 09:47:34;;;;;;;1.47;1.47;;;;;;;5.64;100.00;97676.66;5070346;28;20257;-65
2023/12/22 09:50:02;;;;;;;1.20;1.20;;;;;;;5.81;100.00;97698.91;5071880;28;20657;-65
2023/12/22 09:52:30;;;;;;;1.07;1.07;;;;;;;5.88;100.00;97694.44;5069998;28;20231;-65
2023/12/22 09:54:57;;;;;;;0.97;0.97;;;;;;;5.95;100.00;97689.03;5070326;28;20211;-66
2023/12/22 09:57:26;;;;;;;0.90;0.90;;;;;;;6.02;100.00;97692.19;5070355;28;20270;-65
2023/12/22 09:59:54;;;;;;;1.30;1.20;;;;;;;6.13;100.00;97688.34;5070061;28;20257;-65
2023/12/22 10:02:21;;;;;;;1.43;1.33;;;;;;;6.16;100.00;97684.84;5065781;28;20262;-65
2023/12/22 10:04:49;;;;;;;0.93;0.93;;;;;;;6.26;100.00;97683.59;5068401;28;20208;-65
2023/12/22 10:07:18;;;;;;;1.90;1.80;;;;;;;6.34;100.00;97687.47;5067676;28;20204;-65
2023/12/22 10:09:47;;;;;;;1.17;1.03;;;;;;;6.36;100.00;97689.13;5067377;28;20200;-65
2023/12/22 10:12:16;;;;;;;1.40;1.40;;;;;;;6.41;100.00;97692.31;5068968;28;20243;-66
2023/12/22 10:14:43;;;;;;;1.37;1.37;;;;;;;6.44;100.00;97682.00;5067478;28;20203;-66
2023/12/22 10:17:10;;;;;;;1.57;1.57;;;;;;;6.48;100.00;97670.81;5071478;28;20208;-66
2023/12/22 10:19:36;;;;;;;2.07;1.97;;;;;;;6.47;100.00;97682.72;5069678;28;20211;-65
2023/12/22 10:22:04;;;;;;;1.50;1.37;;;;;;;6.41;100.00;97679.59;5073587;28;20203;-66
2023/12/22 10:24:38;;;;;;;4.70;1.43;;;;;;;6.53;100.00;97691.81;5072917;28;20268;-65
2023/12/22 10:27:05;;;;;;;1.77;1.77;;;;;;;6.58;100.00;97687.38;5071134;28;20634;-66
2023/12/22 10:29:32;;;;;;;0.87;0.87;;;;;;;6.60;100.00;97680.47;5072546;28;20200;-66
2023/12/22 10:31:59;;;;;;;1.30;1.30;;;;;;;6.66;100.00;97678.50;5070412;28;20265;-66
2023/12/22 10:34:25;;;;;;;1.33;1.33;;;;;;;6.70;100.00;97674.94;5072491;28;20265;-66
2023/12/22 10:36:52;;;;;;;1.30;1.30;;;;;;;6.80;100.00;97685.56;5075665;28;20250;-65
2023/12/22 10:39:20;;;;;;;1.80;1.70;;;;;;;6.88;100.00;97687.81;5071659;28;20257;-65
2023/12/22 10:41:49;;;;;;;0.67;0.67;;;;;;;6.92;100.00;97690.13;5070391;28;20205;-65
2023/12/22 10:44:17;;;;;;;0.63;0.63;;;;;;;7.00;100.00;97683.00;5067784;28;20729;-68
2023/12/22 10:46:44;;;;;;;4.57;1.13;;;;;;;7.14;100.00;97685.75;5068338;28;20734;-67
2023/12/22 10:49:10;;;;;;;2.50;2.40;;;;;;;7.19;100.00;97690.66;5071005;28;20274;-68
2023/12/22 10:51:37;;;;;;;1.20;1.20;;;;;;;7.23;100.00;97687.94;5073743;28;20228;-68
2023/12/22 10:54:05;;;;;;;0.90;0.90;;;;;;;7.28;100.00;97675.81;5071489;28;20258;-67
2023/12/22 10:56:34;;;;;;;0.90;0.90;;;;;;;7.34;100.00;97670.44;5071249;28;20698;-67
2023/12/22 10:59:02;;;;;;;1.30;1.30;;;;;;;7.42;100.00;97664.16;5070813;28;20687;-67
2023/12/22 11:01:31;;;;;;;7.67;1.20;;;;;;;7.49;100.00;97656.19;5071564;28;20545;-67
2023/12/22 11:04:02;;;;;;;1.07;1.07;;;;;;;7.54;100.00;97650.84;5072628;28;20697;-67
2023/12/22 11:06:31;;;;;;;1.87;1.77;;;;;;;7.59;100.00;97646.38;5072668;28;20248;-67
2023/12/22 11:08:58;;;;;;;1.87;1.87;;;;;;;7.64;100.00;97636.78;5069430;28;20207;-67
2023/12/22 11:11:29;;;;;;;1.93;1.87;;;;;;;7.74;100.00;97636.28;5069591;28;20200;-67
2023/12/22 11:13:58;;;;;;;0.80;0.80;;;;;;;7.82;100.00;97633.38;5070446;28;20223;-68
2023/12/22 11:16:25;;;;;;;1.03;1.03;;;;;;;7.76;100.00;97605.59;5070566;28;20259;-67
2023/12/22 11:18:54;;;;;;;1.40;1.40;;;;;;;7.98;100.00;97624.09;5070887;28;20250;-68
2023/12/22 11:21:23;;;;;;;1.30;1.30;;;;;;;8.01;100.00;97612.94;5068544;28;20572;-67
2023/12/22 11:23:51;;;;;;;1.37;1.37;;;;;;;8.09;100.00;97606.53;5070840;28;20196;-68
2023/12/22 11:26:19;;;;;;;1.50;1.40;;;;;;;8.19;100.00;97602.66;5073285;28;20247;-68
2023/12/22 11:28:47;;;;;;;0.87;0.87;;;;;;;8.27;100.00;97600.53;5069562;28;20289;-67
2023/12/22 11:31:16;;;;;;;1.73;1.73;;;;;;;8.33;100.00;97595.16;5069302;28;20576;-68
2023/12/22 11:33:45;;;;;;;3.93;1.03;;;;;;;8.47;100.00;97583.41;5070629;28;20211;-68
2023/12/22 11:36:13;;;;;;;3.30;1.93;;;;;;;8.63;100.00;97591.94;5069675;28;20209;-67